sensor_id;sensor_type;location;lat;lon;timestamp;P1;durP1;ratioP1;P2;durP2;ratioP2
58123;SDS011;46725;48.068;20.832;2023-02-23T00:00:08;62.17;;;26.50;;
58123;SDS011;46725;48.068;20.832;2023-02-23T00:02:45;64.45;;;28.63;;
58123;SDS011;46725;48.068;20.832;2023-02-23T00:05:11;55.60;;;27.23;;
58123;SDS011;46725;48.068;20.832;2023-02-23T00:07:37;56.42;;;27.23;;
58123;SDS011;46725;48.068;20.832;2023-02-23T00:10:04;60.67;;;27.75;;
58123;SDS011;46725;48.068;20.832;2023-02-23T00:12:30;59.67;;;28.17;;
58123;SDS011;46725;48.068;20.832;2023-02-23T00:14:56;57.20;;;26.05;;
58123;SDS011;46725;48.068;20.832;2023-02-23T00:17:23;52.88;;;27.00;;
58123;SDS011;46725;48.068;20.832;2023-02-23T00:19:49;63.10;;;28.10;;
58123;SDS011;46725;48.068;20.832;2023-02-23T00:22:15;58.88;;;29.42;;
58123;SDS011;46725;48.068;20.832;2023-02-23T00:24:42;58.13;;;28.40;;
58123;SDS011;46725;48.068;20.832;2023-02-23T00:27:11;83.57;;;35.88;;
58123;SDS011;46725;48.068;20.832;2023-02-23T00:29:41;54.30;;;27.17;;
58123;SDS011;46725;48.068;20.832;2023-02-23T00:32:08;49.25;;;25.42;;
58123;SDS011;46725;48.068;20.832;2023-02-23T00:34:34;55.33;;;26.80;;
58123;SDS011;46725;48.068;20.832;2023-02-23T00:37:00;53.00;;;26.73;;
58123;SDS011;46725;48.068;20.832;2023-02-23T00:39:26;54.67;;;28.88;;
58123;SDS011;46725;48.068;20.832;2023-02-23T00:41:53;68.35;;;28.50;;
58123;SDS011;46725;48.068;20.832;2023-02-23T00:44:20;60.42;;;28.75;;
58123;SDS011;46725;48.068;20.832;2023-02-23T00:46:47;66.13;;;30.40;;
58123;SDS011;46725;48.068;20.832;2023-02-23T00:49:16;56.95;;;29.00;;
58123;SDS011;46725;48.068;20.832;2023-02-23T00:51:42;60.70;;;29.02;;
58123;SDS011;46725;48.068;20.832;2023-02-23T00:54:11;65.38;;;30.58;;
58123;SDS011;46725;48.068;20.832;2023-02-23T00:56:37;62.25;;;30.90;;
58123;SDS011;46725;48.068;20.832;2023-02-23T00:59:03;66.53;;;30.85;;
58123;SDS011;46725;48.068;20.832;2023-02-23T01:01:29;66.68;;;34.65;;
58123;SDS011;46725;48.068;20.832;2023-02-23T01:03:55;63.70;;;31.45;;
58123;SDS011;46725;48.068;20.832;2023-02-23T01:06:21;60.60;;;29.13;;
58123;SDS011;46725;48.068;20.832;2023-02-23T01:08:48;56.70;;;29.52;;
58123;SDS011;46725;48.068;20.832;2023-02-23T01:11:18;61.45;;;30.70;;
58123;SDS011;46725;48.068;20.832;2023-02-23T01:13:45;62.80;;;29.73;;
58123;SDS011;46725;48.068;20.832;2023-02-23T01:16:13;59.60;;;30.17;;
58123;SDS011;46725;48.068;20.832;2023-02-23T01:18:39;61.08;;;32.47;;
58123;SDS011;46725;48.068;20.832;2023-02-23T01:21:13;62.45;;;32.28;;
58123;SDS011;46725;48.068;20.832;2023-02-23T01:23:39;74.55;;;32.95;;
58123;SDS011;46725;48.068;20.832;2023-02-23T01:26:12;70.93;;;31.55;;
58123;SDS011;46725;48.068;20.832;2023-02-23T01:28:39;64.05;;;33.03;;
58123;SDS011;46725;48.068;20.832;2023-02-23T01:31:08;63.38;;;31.10;;
58123;SDS011;46725;48.068;20.832;2023-02-23T01:33:34;68.68;;;32.03;;
58123;SDS011;46725;48.068;20.832;2023-02-23T01:36:00;67.68;;;33.42;;
58123;SDS011;46725;48.068;20.832;2023-02-23T01:38:26;76.28;;;34.55;;
58123;SDS011;46725;48.068;20.832;2023-02-23T01:40:52;82.72;;;37.35;;
58123;SDS011;46725;48.068;20.832;2023-02-23T01:43:20;88.78;;;40.35;;
58123;SDS011;46725;48.068;20.832;2023-02-23T01:45:50;77.60;;;37.80;;
58123;SDS011;46725;48.068;20.832;2023-02-23T01:48:23;77.18;;;34.70;;
58123;SDS011;46725;48.068;20.832;2023-02-23T01:50:58;79.00;;;36.00;;
58123;SDS011;46725;48.068;20.832;2023-02-23T01:53:26;79.32;;;35.08;;
58123;SDS011;46725;48.068;20.832;2023-02-23T01:55:53;66.65;;;34.00;;
58123;SDS011;46725;48.068;20.832;2023-02-23T01:58:22;71.15;;;34.58;;
58123;SDS011;46725;48.068;20.832;2023-02-23T02:00:52;89.32;;;41.45;;
58123;SDS011;46725;48.068;20.832;2023-02-23T02:03:30;90.45;;;42.22;;
58123;SDS011;46725;48.068;20.832;2023-02-23T02:05:57;81.75;;;39.22;;
58123;SDS011;46725;48.068;20.832;2023-02-23T02:08:26;67.68;;;33.22;;
58123;SDS011;46725;48.068;20.832;2023-02-23T02:10:53;57.78;;;32.00;;
58123;SDS011;46725;48.068;20.832;2023-02-23T02:13:24;71.15;;;33.20;;
58123;SDS011;46725;48.068;20.832;2023-02-23T02:16:13;70.97;;;32.92;;
58123;SDS011;46725;48.068;20.832;2023-02-23T02:21:19;69.20;;;34.58;;
58123;SDS011;46725;48.068;20.832;2023-02-23T02:23:52;64.97;;;32.60;;
58123;SDS011;46725;48.068;20.832;2023-02-23T02:29:34;62.63;;;31.13;;
58123;SDS011;46725;48.068;20.832;2023-02-23T02:42:52;66.85;;;31.15;;
58123;SDS011;46725;48.068;20.832;2023-02-23T02:47:56;71.93;;;32.30;;
58123;SDS011;46725;48.068;20.832;2023-02-23T02:50:29;70.82;;;32.47;;
58123;SDS011;46725;48.068;20.832;2023-02-23T02:53:04;70.43;;;31.38;;
58123;SDS011;46725;48.068;20.832;2023-02-23T02:55:31;52.78;;;29.00;;
58123;SDS011;46725;48.068;20.832;2023-02-23T02:57:59;60.40;;;30.60;;
58123;SDS011;46725;48.068;20.832;2023-02-23T03:00:31;67.03;;;31.88;;
58123;SDS011;46725;48.068;20.832;2023-02-23T03:03:28;64.50;;;31.83;;
58123;SDS011;46725;48.068;20.832;2023-02-23T03:06:13;62.72;;;29.95;;
58123;SDS011;46725;48.068;20.832;2023-02-23T03:11:52;65.97;;;31.40;;
58123;SDS011;46725;48.068;20.832;2023-02-23T03:17:44;63.20;;;30.50;;
58123;SDS011;46725;48.068;20.832;2023-02-23T03:23:25;63.22;;;31.75;;
58123;SDS011;46725;48.068;20.832;2023-02-23T03:26:13;57.47;;;29.25;;
58123;SDS011;46725;48.068;20.832;2023-02-23T03:32:08;61.88;;;31.25;;
58123;SDS011;46725;48.068;20.832;2023-02-23T03:34:57;66.05;;;30.75;;
58123;SDS011;46725;48.068;20.832;2023-02-23T03:37:46;66.65;;;31.92;;
58123;SDS011;46725;48.068;20.832;2023-02-23T03:40:33;63.97;;;29.63;;
58123;SDS011;46725;48.068;20.832;2023-02-23T03:43:21;58.00;;;28.60;;
58123;SDS011;46725;48.068;20.832;2023-02-23T03:46:08;63.53;;;29.10;;
58123;SDS011;46725;48.068;20.832;2023-02-23T03:48:54;64.50;;;31.17;;
58123;SDS011;46725;48.068;20.832;2023-02-23T03:51:41;60.95;;;30.23;;
58123;SDS011;46725;48.068;20.832;2023-02-23T03:54:30;65.22;;;32.10;;
58123;SDS011;46725;48.068;20.832;2023-02-23T03:57:16;64.15;;;31.52;;
58123;SDS011;46725;48.068;20.832;2023-02-23T04:00:03;61.50;;;31.58;;
58123;SDS011;46725;48.068;20.832;2023-02-23T04:02:50;74.95;;;35.72;;
58123;SDS011;46725;48.068;20.832;2023-02-23T04:05:37;66.93;;;33.97;;
58123;SDS011;46725;48.068;20.832;2023-02-23T04:08:24;68.95;;;34.78;;
58123;SDS011;46725;48.068;20.832;2023-02-23T04:11:18;64.35;;;31.85;;
58123;SDS011;46725;48.068;20.832;2023-02-23T04:14:04;71.70;;;33.28;;
58123;SDS011;46725;48.068;20.832;2023-02-23T04:16:32;69.63;;;32.95;;
58123;SDS011;46725;48.068;20.832;2023-02-23T04:18:58;73.75;;;34.13;;
58123;SDS011;46725;48.068;20.832;2023-02-23T04:21:24;65.30;;;31.98;;
58123;SDS011;46725;48.068;20.832;2023-02-23T04:23:50;64.82;;;32.20;;
58123;SDS011;46725;48.068;20.832;2023-02-23T04:26:16;81.00;;;35.53;;
58123;SDS011;46725;48.068;20.832;2023-02-23T04:28:42;69.65;;;34.58;;
58123;SDS011;46725;48.068;20.832;2023-02-23T04:31:08;72.20;;;33.47;;
58123;SDS011;46725;48.068;20.832;2023-02-23T04:33:35;65.25;;;33.38;;
58123;SDS011;46725;48.068;20.832;2023-02-23T04:36:01;66.85;;;31.88;;
58123;SDS011;46725;48.068;20.832;2023-02-23T04:38:27;59.17;;;31.67;;
58123;SDS011;46725;48.068;20.832;2023-02-23T04:40:53;63.03;;;32.20;;
58123;SDS011;46725;48.068;20.832;2023-02-23T04:43:19;76.53;;;34.60;;
58123;SDS011;46725;48.068;20.832;2023-02-23T04:45:45;67.28;;;32.65;;
58123;SDS011;46725;48.068;20.832;2023-02-23T04:48:11;65.07;;;31.58;;
58123;SDS011;46725;48.068;20.832;2023-02-23T04:50:37;70.45;;;31.30;;
58123;SDS011;46725;48.068;20.832;2023-02-23T04:53:03;60.33;;;30.58;;
58123;SDS011;46725;48.068;20.832;2023-02-23T04:55:29;57.97;;;29.80;;
58123;SDS011;46725;48.068;20.832;2023-02-23T04:57:57;65.55;;;29.75;;
58123;SDS011;46725;48.068;20.832;2023-02-23T05:00:24;61.17;;;29.65;;
58123;SDS011;46725;48.068;20.832;2023-02-23T05:02:50;64.60;;;29.83;;
58123;SDS011;46725;48.068;20.832;2023-02-23T05:05:16;60.30;;;30.27;;
58123;SDS011;46725;48.068;20.832;2023-02-23T05:07:43;60.17;;;28.90;;
58123;SDS011;46725;48.068;20.832;2023-02-23T05:10:09;67.00;;;31.48;;
58123;SDS011;46725;48.068;20.832;2023-02-23T05:12:35;56.00;;;30.15;;
58123;SDS011;46725;48.068;20.832;2023-02-23T05:15:02;70.55;;;35.55;;
58123;SDS011;46725;48.068;20.832;2023-02-23T05:17:28;68.88;;;33.78;;
58123;SDS011;46725;48.068;20.832;2023-02-23T05:19:54;70.32;;;34.22;;
58123;SDS011;46725;48.068;20.832;2023-02-23T05:22:20;63.50;;;34.20;;
58123;SDS011;46725;48.068;20.832;2023-02-23T05:24:46;71.80;;;34.20;;
58123;SDS011;46725;48.068;20.832;2023-02-23T05:27:12;65.85;;;33.13;;
58123;SDS011;46725;48.068;20.832;2023-02-23T05:29:39;67.90;;;32.92;;
58123;SDS011;46725;48.068;20.832;2023-02-23T05:32:06;68.82;;;31.38;;
58123;SDS011;46725;48.068;20.832;2023-02-23T05:34:32;58.15;;;29.48;;
58123;SDS011;46725;48.068;20.832;2023-02-23T05:36:59;61.67;;;31.02;;
58123;SDS011;46725;48.068;20.832;2023-02-23T05:39:25;55.45;;;27.55;;
58123;SDS011;46725;48.068;20.832;2023-02-23T05:41:51;58.78;;;28.95;;
58123;SDS011;46725;48.068;20.832;2023-02-23T05:44:17;59.17;;;27.70;;
58123;SDS011;46725;48.068;20.832;2023-02-23T05:46:44;61.55;;;28.65;;
58123;SDS011;46725;48.068;20.832;2023-02-23T05:49:11;60.10;;;29.10;;
58123;SDS011;46725;48.068;20.832;2023-02-23T05:51:37;53.92;;;26.63;;
58123;SDS011;46725;48.068;20.832;2023-02-23T05:54:04;52.85;;;27.38;;
58123;SDS011;46725;48.068;20.832;2023-02-23T05:56:30;58.65;;;27.98;;
58123;SDS011;46725;48.068;20.832;2023-02-23T05:58:56;68.53;;;29.63;;
58123;SDS011;46725;48.068;20.832;2023-02-23T06:01:23;63.95;;;29.55;;
58123;SDS011;46725;48.068;20.832;2023-02-23T06:03:49;65.72;;;29.90;;
58123;SDS011;46725;48.068;20.832;2023-02-23T06:06:16;88.85;;;35.58;;
58123;SDS011;46725;48.068;20.832;2023-02-23T06:08:42;81.30;;;33.58;;
58123;SDS011;46725;48.068;20.832;2023-02-23T06:11:08;73.88;;;33.45;;
58123;SDS011;46725;48.068;20.832;2023-02-23T06:13:35;70.18;;;33.47;;
58123;SDS011;46725;48.068;20.832;2023-02-23T06:16:01;95.80;;;39.55;;
58123;SDS011;46725;48.068;20.832;2023-02-23T06:18:27;102.45;;;40.88;;
58123;SDS011;46725;48.068;20.832;2023-02-23T06:20:53;105.25;;;43.33;;
58123;SDS011;46725;48.068;20.832;2023-02-23T06:23:19;97.55;;;40.50;;
58123;SDS011;46725;48.068;20.832;2023-02-23T06:25:46;106.35;;;41.75;;
58123;SDS011;46725;48.068;20.832;2023-02-23T06:28:12;106.57;;;44.10;;
58123;SDS011;46725;48.068;20.832;2023-02-23T06:30:39;103.85;;;43.28;;
58123;SDS011;46725;48.068;20.832;2023-02-23T06:33:05;90.93;;;39.70;;
58123;SDS011;46725;48.068;20.832;2023-02-23T06:35:32;97.50;;;40.03;;
58123;SDS011;46725;48.068;20.832;2023-02-23T06:37:58;97.32;;;39.97;;
58123;SDS011;46725;48.068;20.832;2023-02-23T06:40:25;87.57;;;39.38;;
58123;SDS011;46725;48.068;20.832;2023-02-23T06:42:51;74.38;;;35.20;;
58123;SDS011;46725;48.068;20.832;2023-02-23T06:45:17;65.78;;;32.78;;
58123;SDS011;46725;48.068;20.832;2023-02-23T06:47:44;72.32;;;33.97;;
58123;SDS011;46725;48.068;20.832;2023-02-23T06:50:11;69.25;;;32.85;;
58123;SDS011;46725;48.068;20.832;2023-02-23T06:52:37;77.68;;;33.47;;
58123;SDS011;46725;48.068;20.832;2023-02-23T06:55:03;66.75;;;32.15;;
58123;SDS011;46725;48.068;20.832;2023-02-23T06:57:30;66.15;;;31.02;;
58123;SDS011;46725;48.068;20.832;2023-02-23T06:59:56;61.75;;;31.05;;
58123;SDS011;46725;48.068;20.832;2023-02-23T07:02:22;60.90;;;30.15;;
58123;SDS011;46725;48.068;20.832;2023-02-23T07:04:48;69.28;;;31.58;;
58123;SDS011;46725;48.068;20.832;2023-02-23T07:07:15;64.90;;;32.00;;
58123;SDS011;46725;48.068;20.832;2023-02-23T07:09:41;57.92;;;28.38;;
58123;SDS011;46725;48.068;20.832;2023-02-23T07:12:07;59.15;;;28.63;;
58123;SDS011;46725;48.068;20.832;2023-02-23T07:14:34;67.85;;;30.83;;
58123;SDS011;46725;48.068;20.832;2023-02-23T07:17:01;59.58;;;30.60;;
58123;SDS011;46725;48.068;20.832;2023-02-23T07:19:28;65.38;;;30.13;;
58123;SDS011;46725;48.068;20.832;2023-02-23T07:21:54;62.50;;;30.92;;
58123;SDS011;46725;48.068;20.832;2023-02-23T07:24:20;60.55;;;29.77;;
58123;SDS011;46725;48.068;20.832;2023-02-23T07:26:47;61.30;;;30.52;;
58123;SDS011;46725;48.068;20.832;2023-02-23T07:29:13;52.83;;;27.20;;
58123;SDS011;46725;48.068;20.832;2023-02-23T07:31:40;58.92;;;27.95;;
58123;SDS011;46725;48.068;20.832;2023-02-23T07:34:07;59.08;;;26.20;;
58123;SDS011;46725;48.068;20.832;2023-02-23T07:36:33;54.05;;;27.40;;
58123;SDS011;46725;48.068;20.832;2023-02-23T07:38:59;48.80;;;24.02;;
58123;SDS011;46725;48.068;20.832;2023-02-23T07:41:25;53.47;;;26.00;;
58123;SDS011;46725;48.068;20.832;2023-02-23T07:43:51;49.00;;;24.95;;
58123;SDS011;46725;48.068;20.832;2023-02-23T07:46:17;52.80;;;23.17;;
58123;SDS011;46725;48.068;20.832;2023-02-23T07:48:43;48.90;;;24.27;;
58123;SDS011;46725;48.068;20.832;2023-02-23T07:51:10;48.35;;;22.58;;
58123;SDS011;46725;48.068;20.832;2023-02-23T07:53:37;55.60;;;22.70;;
58123;SDS011;46725;48.068;20.832;2023-02-23T07:56:03;36.50;;;18.85;;
58123;SDS011;46725;48.068;20.832;2023-02-23T07:58:29;32.13;;;16.88;;
58123;SDS011;46725;48.068;20.832;2023-02-23T08:00:56;28.08;;;13.93;;
58123;SDS011;46725;48.068;20.832;2023-02-23T08:03:22;28.95;;;13.57;;
58123;SDS011;46725;48.068;20.832;2023-02-23T08:05:48;28.77;;;12.80;;
58123;SDS011;46725;48.068;20.832;2023-02-23T08:08:14;23.05;;;10.93;;
58123;SDS011;46725;48.068;20.832;2023-02-23T08:10:40;21.23;;;11.20;;
58123;SDS011;46725;48.068;20.832;2023-02-23T08:13:06;19.60;;;10.07;;
58123;SDS011;46725;48.068;20.832;2023-02-23T08:15:32;24.55;;;11.23;;
58123;SDS011;46725;48.068;20.832;2023-02-23T08:17:58;23.88;;;11.35;;
58123;SDS011;46725;48.068;20.832;2023-02-23T08:20:24;22.25;;;9.82;;
58123;SDS011;46725;48.068;20.832;2023-02-23T08:22:55;19.73;;;8.48;;
58123;SDS011;46725;48.068;20.832;2023-02-23T08:25:21;20.77;;;10.63;;
58123;SDS011;46725;48.068;20.832;2023-02-23T08:27:47;22.48;;;10.13;;
58123;SDS011;46725;48.068;20.832;2023-02-23T08:30:16;22.42;;;10.00;;
58123;SDS011;46725;48.068;20.832;2023-02-23T08:32:43;23.70;;;12.43;;
58123;SDS011;46725;48.068;20.832;2023-02-23T08:35:09;25.23;;;11.10;;
58123;SDS011;46725;48.068;20.832;2023-02-23T08:37:36;18.67;;;9.13;;
58123;SDS011;46725;48.068;20.832;2023-02-23T08:40:02;20.48;;;8.98;;
58123;SDS011;46725;48.068;20.832;2023-02-23T08:42:28;17.75;;;8.52;;
58123;SDS011;46725;48.068;20.832;2023-02-23T08:44:54;17.20;;;6.40;;
58123;SDS011;46725;48.068;20.832;2023-02-23T08:47:21;16.52;;;7.43;;
58123;SDS011;46725;48.068;20.832;2023-02-23T08:49:51;17.45;;;7.28;;
58123;SDS011;46725;48.068;20.832;2023-02-23T08:54:47;23.73;;;9.25;;
58123;SDS011;46725;48.068;20.832;2023-02-23T08:57:13;23.17;;;10.63;;
58123;SDS011;46725;48.068;20.832;2023-02-23T08:59:39;23.52;;;10.93;;
58123;SDS011;46725;48.068;20.832;2023-02-23T09:02:06;26.38;;;10.70;;
58123;SDS011;46725;48.068;20.832;2023-02-23T09:04:32;30.30;;;15.55;;
58123;SDS011;46725;48.068;20.832;2023-02-23T09:07:02;21.65;;;9.98;;
58123;SDS011;46725;48.068;20.832;2023-02-23T09:09:28;18.30;;;9.75;;
58123;SDS011;46725;48.068;20.832;2023-02-23T09:11:54;19.38;;;8.60;;
58123;SDS011;46725;48.068;20.832;2023-02-23T09:14:20;18.17;;;8.38;;
58123;SDS011;46725;48.068;20.832;2023-02-23T09:16:46;17.77;;;8.32;;
58123;SDS011;46725;48.068;20.832;2023-02-23T09:19:12;19.08;;;8.05;;
58123;SDS011;46725;48.068;20.832;2023-02-23T09:21:38;26.75;;;10.40;;
58123;SDS011;46725;48.068;20.832;2023-02-23T09:24:05;16.77;;;7.95;;
58123;SDS011;46725;48.068;20.832;2023-02-23T09:26:31;22.50;;;9.13;;
58123;SDS011;46725;48.068;20.832;2023-02-23T09:28:58;17.92;;;8.10;;
58123;SDS011;46725;48.068;20.832;2023-02-23T09:31:25;16.67;;;7.68;;
58123;SDS011;46725;48.068;20.832;2023-02-23T09:33:51;21.85;;;8.48;;
58123;SDS011;46725;48.068;20.832;2023-02-23T09:36:19;21.45;;;8.00;;
58123;SDS011;46725;48.068;20.832;2023-02-23T09:38:46;16.38;;;8.00;;
58123;SDS011;46725;48.068;20.832;2023-02-23T09:41:57;16.00;;;7.55;;
58123;SDS011;46725;48.068;20.832;2023-02-23T09:44:05;15.20;;;6.55;;
58123;SDS011;46725;48.068;20.832;2023-02-23T09:49:16;12.05;;;6.25;;
58123;SDS011;46725;48.068;20.832;2023-02-23T09:51:43;18.00;;;7.85;;
58123;SDS011;46725;48.068;20.832;2023-02-23T09:54:12;12.95;;;6.40;;
58123;SDS011;46725;48.068;20.832;2023-02-23T09:56:40;15.63;;;6.00;;
58123;SDS011;46725;48.068;20.832;2023-02-23T09:59:18;19.70;;;8.35;;
58123;SDS011;46725;48.068;20.832;2023-02-23T10:12:09;20.20;;;6.60;;
58123;SDS011;46725;48.068;20.832;2023-02-23T10:19:34;10.07;;;5.80;;
58123;SDS011;46725;48.068;20.832;2023-02-23T10:22:04;15.63;;;6.30;;
58123;SDS011;46725;48.068;20.832;2023-02-23T10:24:34;14.18;;;6.65;;
58123;SDS011;46725;48.068;20.832;2023-02-23T10:27:03;13.52;;;6.50;;
58123;SDS011;46725;48.068;20.832;2023-02-23T10:29:32;11.60;;;5.95;;
58123;SDS011;46725;48.068;20.832;2023-02-23T10:32:01;17.98;;;6.38;;
58123;SDS011;46725;48.068;20.832;2023-02-23T10:34:28;19.20;;;7.93;;
58123;SDS011;46725;48.068;20.832;2023-02-23T10:36:59;29.75;;;11.93;;
58123;SDS011;46725;48.068;20.832;2023-02-23T10:39:26;13.73;;;7.10;;
58123;SDS011;46725;48.068;20.832;2023-02-23T10:41:52;16.27;;;7.00;;
58123;SDS011;46725;48.068;20.832;2023-02-23T10:44:23;16.55;;;6.20;;
58123;SDS011;46725;48.068;20.832;2023-02-23T10:46:50;24.35;;;8.57;;
58123;SDS011;46725;48.068;20.832;2023-02-23T10:49:18;16.08;;;5.93;;
58123;SDS011;46725;48.068;20.832;2023-02-23T10:51:46;17.83;;;6.78;;
58123;SDS011;46725;48.068;20.832;2023-02-23T10:54:58;16.75;;;5.78;;
58123;SDS011;46725;48.068;20.832;2023-02-23T10:56:59;13.25;;;6.72;;
58123;SDS011;46725;48.068;20.832;2023-02-23T10:59:25;14.23;;;5.82;;
58123;SDS011;46725;48.068;20.832;2023-02-23T11:01:52;12.45;;;6.05;;
58123;SDS011;46725;48.068;20.832;2023-02-23T11:04:28;11.20;;;5.88;;
58123;SDS011;46725;48.068;20.832;2023-02-23T11:07:05;15.82;;;6.03;;
58123;SDS011;46725;48.068;20.832;2023-02-23T11:09:32;13.23;;;6.43;;
58123;SDS011;46725;48.068;20.832;2023-02-23T11:12:00;12.25;;;6.15;;
58123;SDS011;46725;48.068;20.832;2023-02-23T11:14:27;11.55;;;5.82;;
58123;SDS011;46725;48.068;20.832;2023-02-23T11:16:57;13.93;;;5.60;;
58123;SDS011;46725;48.068;20.832;2023-02-23T11:19:34;11.40;;;5.25;;
58123;SDS011;46725;48.068;20.832;2023-02-23T11:22:02;16.23;;;5.35;;
58123;SDS011;46725;48.068;20.832;2023-02-23T11:24:31;12.48;;;5.68;;
58123;SDS011;46725;48.068;20.832;2023-02-23T11:26:59;18.98;;;9.15;;
58123;SDS011;46725;48.068;20.832;2023-02-23T11:29:35;15.20;;;6.53;;
58123;SDS011;46725;48.068;20.832;2023-02-23T11:32:02;16.10;;;6.30;;
58123;SDS011;46725;48.068;20.832;2023-02-23T11:34:33;15.98;;;6.32;;
58123;SDS011;46725;48.068;20.832;2023-02-23T11:39:28;12.02;;;5.93;;
58123;SDS011;46725;48.068;20.832;2023-02-23T11:44:39;14.07;;;5.70;;
58123;SDS011;46725;48.068;20.832;2023-02-23T11:47:11;16.13;;;6.85;;
58123;SDS011;46725;48.068;20.832;2023-02-23T11:49:38;17.98;;;6.88;;
58123;SDS011;46725;48.068;20.832;2023-02-23T11:52:10;17.10;;;6.35;;
58123;SDS011;46725;48.068;20.832;2023-02-23T11:54:37;16.83;;;6.45;;
58123;SDS011;46725;48.068;20.832;2023-02-23T11:57:03;19.75;;;6.18;;
58123;SDS011;46725;48.068;20.832;2023-02-23T11:59:34;15.57;;;6.68;;
58123;SDS011;46725;48.068;20.832;2023-02-23T12:07:17;12.88;;;5.97;;
58123;SDS011;46725;48.068;20.832;2023-02-23T12:09:40;20.40;;;7.00;;
58123;SDS011;46725;48.068;20.832;2023-02-23T12:12:11;15.05;;;6.00;;
58123;SDS011;46725;48.068;20.832;2023-02-23T12:14:46;12.48;;;6.05;;
58123;SDS011;46725;48.068;20.832;2023-02-23T12:17:21;16.52;;;5.75;;
58123;SDS011;46725;48.068;20.832;2023-02-23T12:22:14;15.00;;;5.65;;
58123;SDS011;46725;48.068;20.832;2023-02-23T12:25:00;16.35;;;5.55;;
58123;SDS011;46725;48.068;20.832;2023-02-23T12:27:39;16.35;;;6.38;;
58123;SDS011;46725;48.068;20.832;2023-02-23T12:32:48;16.02;;;5.80;;
58123;SDS011;46725;48.068;20.832;2023-02-23T12:36:18;17.75;;;5.80;;
58123;SDS011;46725;48.068;20.832;2023-02-23T12:38:28;15.25;;;5.38;;
58123;SDS011;46725;48.068;20.832;2023-02-23T12:41:10;18.73;;;6.35;;
58123;SDS011;46725;48.068;20.832;2023-02-23T12:43:38;16.63;;;5.90;;
58123;SDS011;46725;48.068;20.832;2023-02-23T12:46:17;14.90;;;6.07;;
58123;SDS011;46725;48.068;20.832;2023-02-23T12:48:51;13.82;;;5.63;;
58123;SDS011;46725;48.068;20.832;2023-02-23T12:51:24;15.13;;;6.57;;
58123;SDS011;46725;48.068;20.832;2023-02-23T12:53:52;13.15;;;5.80;;
58123;SDS011;46725;48.068;20.832;2023-02-23T13:14:41;16.17;;;6.60;;
58123;SDS011;46725;48.068;20.832;2023-02-23T13:17:27;13.30;;;6.57;;
58123;SDS011;46725;48.068;20.832;2023-02-23T13:20:20;18.48;;;6.25;;
58123;SDS011;46725;48.068;20.832;2023-02-23T13:23:19;12.73;;;5.45;;
58123;SDS011;46725;48.068;20.832;2023-02-23T13:25:38;14.55;;;5.95;;
58123;SDS011;46725;48.068;20.832;2023-02-23T13:28:07;15.30;;;5.65;;
58123;SDS011;46725;48.068;20.832;2023-02-23T13:30:38;16.83;;;6.53;;
58123;SDS011;46725;48.068;20.832;2023-02-23T13:35:37;14.93;;;6.63;;
58123;SDS011;46725;48.068;20.832;2023-02-23T13:38:06;20.35;;;6.53;;
58123;SDS011;46725;48.068;20.832;2023-02-23T13:40:47;19.73;;;7.43;;
58123;SDS011;46725;48.068;20.832;2023-02-23T13:43:26;19.08;;;8.73;;
58123;SDS011;46725;48.068;20.832;2023-02-23T13:51:00;15.05;;;7.20;;
58123;SDS011;46725;48.068;20.832;2023-02-23T13:56:40;12.93;;;5.50;;
58123;SDS011;46725;48.068;20.832;2023-02-23T13:58:59;11.88;;;5.78;;
58123;SDS011;46725;48.068;20.832;2023-02-23T14:03:53;17.50;;;7.18;;
58123;SDS011;46725;48.068;20.832;2023-02-23T14:06:21;15.77;;;7.05;;
58123;SDS011;46725;48.068;20.832;2023-02-23T14:08:51;11.63;;;6.15;;
58123;SDS011;46725;48.068;20.832;2023-02-23T14:11:33;13.07;;;5.63;;
58123;SDS011;46725;48.068;20.832;2023-02-23T14:14:00;16.00;;;6.70;;
58123;SDS011;46725;48.068;20.832;2023-02-23T14:16:27;12.73;;;5.78;;
58123;SDS011;46725;48.068;20.832;2023-02-23T14:19:06;17.08;;;6.00;;
58123;SDS011;46725;48.068;20.832;2023-02-23T14:21:50;13.02;;;6.63;;
58123;SDS011;46725;48.068;20.832;2023-02-23T14:24:22;15.88;;;6.45;;
58123;SDS011;46725;48.068;20.832;2023-02-23T14:29:44;14.10;;;6.40;;
58123;SDS011;46725;48.068;20.832;2023-02-23T14:32:29;11.77;;;6.15;;
58123;SDS011;46725;48.068;20.832;2023-02-23T14:34:59;16.38;;;6.20;;
58123;SDS011;46725;48.068;20.832;2023-02-23T14:39:59;17.30;;;6.80;;
58123;SDS011;46725;48.068;20.832;2023-02-23T14:42:26;15.85;;;6.22;;
58123;SDS011;46725;48.068;20.832;2023-02-23T14:44:57;16.73;;;6.57;;
58123;SDS011;46725;48.068;20.832;2023-02-23T14:47:27;14.77;;;7.03;;
58123;SDS011;46725;48.068;20.832;2023-02-23T14:49:55;13.48;;;6.15;;
58123;SDS011;46725;48.068;20.832;2023-02-23T14:52:22;13.55;;;6.43;;
58123;SDS011;46725;48.068;20.832;2023-02-23T14:54:49;14.77;;;6.57;;
58123;SDS011;46725;48.068;20.832;2023-02-23T14:57:23;20.13;;;7.85;;
58123;SDS011;46725;48.068;20.832;2023-02-23T14:59:51;21.67;;;8.90;;
58123;SDS011;46725;48.068;20.832;2023-02-23T15:02:20;27.42;;;13.68;;
58123;SDS011;46725;48.068;20.832;2023-02-23T15:04:48;19.98;;;9.27;;
58123;SDS011;46725;48.068;20.832;2023-02-23T15:07:16;18.35;;;7.97;;
58123;SDS011;46725;48.068;20.832;2023-02-23T15:09:50;18.55;;;6.60;;
58123;SDS011;46725;48.068;20.832;2023-02-23T15:14:47;15.88;;;5.88;;
58123;SDS011;46725;48.068;20.832;2023-02-23T15:17:19;12.68;;;5.72;;
58123;SDS011;46725;48.068;20.832;2023-02-23T15:19:47;16.52;;;6.15;;
58123;SDS011;46725;48.068;20.832;2023-02-23T15:22:22;20.80;;;6.47;;
58123;SDS011;46725;48.068;20.832;2023-02-23T15:24:49;16.08;;;6.65;;
58123;SDS011;46725;48.068;20.832;2023-02-23T15:27:16;17.80;;;6.45;;
58123;SDS011;46725;48.068;20.832;2023-02-23T15:29:43;16.15;;;6.28;;
58123;SDS011;46725;48.068;20.832;2023-02-23T15:32:10;15.98;;;6.32;;
58123;SDS011;46725;48.068;20.832;2023-02-23T15:34:38;15.23;;;5.68;;
58123;SDS011;46725;48.068;20.832;2023-02-23T15:39:51;18.33;;;6.30;;
58123;SDS011;46725;48.068;20.832;2023-02-23T15:42:21;17.33;;;6.20;;
58123;SDS011;46725;48.068;20.832;2023-02-23T15:44:52;14.25;;;6.10;;
58123;SDS011;46725;48.068;20.832;2023-02-23T15:47:20;18.67;;;7.68;;
58123;SDS011;46725;48.068;20.832;2023-02-23T15:49:52;21.20;;;9.68;;
58123;SDS011;46725;48.068;20.832;2023-02-23T15:52:24;23.23;;;11.32;;
58123;SDS011;46725;48.068;20.832;2023-02-23T15:54:52;21.10;;;10.10;;
58123;SDS011;46725;48.068;20.832;2023-02-23T15:57:25;19.55;;;8.50;;
58123;SDS011;46725;48.068;20.832;2023-02-23T15:59:52;19.77;;;7.60;;
58123;SDS011;46725;48.068;20.832;2023-02-23T16:02:22;18.00;;;7.43;;
58123;SDS011;46725;48.068;20.832;2023-02-23T16:04:48;20.75;;;8.18;;
58123;SDS011;46725;48.068;20.832;2023-02-23T16:09:47;19.10;;;7.68;;
58123;SDS011;46725;48.068;20.832;2023-02-23T16:12:30;15.00;;;7.60;;
58123;SDS011;46725;48.068;20.832;2023-02-23T16:15:01;15.68;;;6.88;;
58123;SDS011;46725;48.068;20.832;2023-02-23T16:22:45;21.00;;;7.22;;
58123;SDS011;46725;48.068;20.832;2023-02-23T16:25:13;21.00;;;8.15;;